createdAt,value
2017-05-02T00:00:02.565Z,12.48
2017-05-02T00:01:03.153Z,12.48
2017-05-02T00:02:03.132Z,12.37
2017-05-02T00:03:02.816Z,12.46
2017-05-02T00:04:03.084Z,12.48
2017-05-02T00:05:03.077Z,12.52
2017-05-02T00:06:02.762Z,12.55
2017-05-02T00:07:03.033Z,12.55
2017-05-02T00:08:03.033Z,12.57
2017-05-02T00:09:02.683Z,12.52
2017-05-02T00:10:02.687Z,12.53
2017-05-02T00:11:02.650Z,12.55
2017-05-02T00:12:02.631Z,12.57
2017-05-02T00:13:02.609Z,12.5
2017-05-02T00:14:02.600Z,12.49
2017-05-02T00:15:02.886Z,12.5
2017-05-02T00:16:02.560Z,12.52
2017-05-02T00:17:02.832Z,12.48
2017-05-02T00:18:02.513Z,12.42
2017-05-02T00:19:02.504Z,12.42
2017-05-02T00:20:02.781Z,12.5
2017-05-02T00:21:02.770Z,12.45
2017-05-02T00:22:02.746Z,12.53
2017-05-02T00:23:02.744Z,12.49
2017-05-02T00:24:02.704Z,12.46
2017-05-02T00:25:02.695Z,12.46
2017-05-02T00:26:02.663Z,12.46
2017-05-02T00:27:02.652Z,12.39
2017-05-02T00:28:02.633Z,12.42
2017-05-02T00:29:02.619Z,12.37
2017-05-02T00:30:02.593Z,12.42
2017-05-02T00:31:02.589Z,12.34
2017-05-02T00:32:02.554Z,12.37
2017-05-02T00:33:02.239Z,12.34
2017-05-02T00:34:02.510Z,12.34
2017-05-02T00:35:02.194Z,12.37
2017-05-02T00:36:02.479Z,12.34
2017-05-02T00:37:01.846Z,12.39
2017-05-02T00:38:02.174Z,12.35
2017-05-02T00:39:02.112Z,12.31
2017-05-02T00:40:02.104Z,12.42
2017-05-02T00:41:02.382Z,12.42
2017-05-02T00:42:02.367Z,12.35
2017-05-02T00:43:01.732Z,12.34
2017-05-02T00:44:02.076Z,12.37
2017-05-02T00:45:02.301Z,12.31
2017-05-02T00:46:01.682Z,12.32
2017-05-02T00:47:01.962Z,12.24
2017-05-02T00:48:01.944Z,12.25
2017-05-02T00:49:01.607Z,12.17
2017-05-02T00:50:01.891Z,12.21
2017-05-02T00:51:01.571Z,12.21
2017-05-02T00:52:02.163Z,12.21
2017-05-02T00:53:02.150Z,12.23
2017-05-02T00:54:01.829Z,12.2
2017-05-02T00:55:02.104Z,12.21
2017-05-02T00:56:02.094Z,12.21
2017-05-02T00:57:02.070Z,12.17
2017-05-02T00:58:01.753Z,12.28
2017-05-02T00:59:02.037Z,12.15
2017-05-02T01:00:01.708Z,12.25
2017-05-02T01:01:02.002Z,12.28
2017-05-02T01:02:01.493Z,12.34
2017-05-02T01:03:01.352Z,12.15
2017-05-02T01:04:01.646Z,12.17
2017-05-02T01:05:01.312Z,12.1
2017-05-02T01:06:01.670Z,12.06
2017-05-02T01:07:01.563Z,12.02
2017-05-02T01:08:01.851Z,12.1
2017-05-02T01:09:01.832Z,12.09
2017-05-02T01:10:01.512Z,12.13
2017-05-02T01:11:01.802Z,12.15
2017-05-02T01:12:01.484Z,12.16
2017-05-02T01:13:01.467Z,12.17
2017-05-02T01:14:01.733Z,12.16
2017-05-02T01:15:01.420Z,12.17
2017-05-02T01:16:01.697Z,12.17
2017-05-02T01:17:01.681Z,12.16
2017-05-02T01:18:01.653Z,12.16
2017-05-02T01:19:01.346Z,12.17
2017-05-02T01:20:01.314Z,12.16
2017-05-02T01:21:00.984Z,12.16
2017-05-02T01:22:01.601Z,12.17
2017-05-02T01:23:01.284Z,12.21
2017-05-02T01:24:01.550Z,12.2
2017-05-02T01:25:00.922Z,12.24
2017-05-02T01:26:00.893Z,12.15
2017-05-02T01:27:01.486Z,12.17
2017-05-02T01:28:01.168Z,12.2
2017-05-02T01:29:01.139Z,12.17
2017-05-02T01:30:01.144Z,12.17
2017-05-02T01:31:01.403Z,12.2
2017-05-02T01:32:01.385Z,12.17
2017-05-02T01:33:01.362Z,12.17
2017-05-02T01:34:01.043Z,12.21
2017-05-02T01:35:01.333Z,12.2
2017-05-02T01:36:01.312Z,12.15
2017-05-02T01:37:00.982Z,12.13
2017-05-02T01:38:00.670Z,12.15
2017-05-02T01:39:00.940Z,12.13
2017-05-02T01:40:01.242Z,12.1
2017-05-02T01:41:00.907Z,12.09
2017-05-02T01:42:00.571Z,11.97
2017-05-02T01:43:01.172Z,11.98
2017-05-02T01:44:01.151Z,11.97
2017-05-02T01:45:01.142Z,11.98
2017-05-02T01:46:00.501Z,12.02
2017-05-02T01:47:00.479Z,12.03
2017-05-02T01:48:00.789Z,11.98
2017-05-02T01:49:00.453Z,11.98
2017-05-02T01:50:00.431Z,12.05
2017-05-02T01:51:00.704Z,12.02
2017-05-02T01:52:01.012Z,12.02
2017-05-02T01:53:00.384Z,11.98
2017-05-02T01:54:00.968Z,11.98
2017-05-02T01:55:00.644Z,12.05
2017-05-02T01:56:00.612Z,11.97
2017-05-02T01:57:00.599Z,12.03
2017-05-02T01:58:00.282Z,12.03
2017-05-02T01:59:00.861Z,12.05
2017-05-02T02:00:00.851Z,12.13
2017-05-02T02:01:00.823Z,12.1
2017-05-02T02:02:00.493Z,12.15
2017-05-02T02:03:00.494Z,12.13
2017-05-02T02:04:00.463Z,12.1
2017-05-02T02:05:00.442Z,12.13
2017-05-02T02:06:00.722Z,12.02
2017-05-02T02:07:00.700Z,12.12
2017-05-02T02:08:00.381Z,12.2
2017-05-02T02:09:00.357Z,11.97
2017-05-02T02:10:00.344Z,12.02
2017-05-02T02:11:00.621Z,11.94
2017-05-02T02:12:00.098Z,11.99
2017-05-02T02:13:00.582Z,12.05
2017-05-02T02:14:00.269Z,12.07
2017-05-02T02:15:00.242Z,11.99
2017-05-02T02:16:00.532Z,12.06
2017-05-02T02:17:00.232Z,12.16
2017-05-02T02:18:00.494Z,12.13
2017-05-02T02:19:00.172Z,12.02
2017-05-02T02:20:00.148Z,12.06
2017-05-02T02:21:00.132Z,12.07
2017-05-02T02:22:00.411Z,12.05
2017-05-02T02:23:00.084Z,12.03
2017-05-02T02:24:00.380Z,12.03
2017-05-02T02:25:00.352Z,11.97
2017-05-02T02:26:00.341Z,11.9
2017-05-02T02:27:00.313Z,11.98
2017-05-02T02:28:00.005Z,11.9
2017-05-02T02:28:59.972Z,11.9
2017-05-02T02:30:00.267Z,11.97
2017-05-02T02:30:59.616Z,11.95
2017-05-02T02:32:00.218Z,11.91
2017-05-02T02:33:00.199Z,12.02
2017-05-02T02:34:00.176Z,11.95
2017-05-02T02:34:59.866Z,11.98
2017-05-02T02:36:00.133Z,11.94
2017-05-02T02:36:59.820Z,11.95
2017-05-02T02:38:00.103Z,11.98
2017-05-02T02:38:59.783Z,12.02
2017-05-02T02:39:59.843Z,11.98
2017-05-02T02:40:59.742Z,11.95
2017-05-02T02:41:59.732Z,11.95
2017-05-02T02:42:59.394Z,11.94
2017-05-02T02:43:59.983Z,11.97
2017-05-02T02:44:59.666Z,11.97
2017-05-02T02:45:59.693Z,11.94
2017-05-02T02:46:59.928Z,11.91
2017-05-02T02:47:59.904Z,11.98
2017-05-02T02:48:59.883Z,11.91
2017-05-02T02:49:59.863Z,11.99
2017-05-02T02:50:59.842Z,11.89
2017-05-02T02:51:59.823Z,11.89
2017-05-02T02:52:59.823Z,11.94
2017-05-02T02:53:59.793Z,11.97
2017-05-02T02:54:59.783Z,11.94
2017-05-02T02:55:59.752Z,11.83
2017-05-02T02:56:59.724Z,11.97
2017-05-02T02:57:59.713Z,11.87
2017-05-02T02:58:59.690Z,11.94
2017-05-02T02:59:59.679Z,11.95
2017-05-02T03:00:59.648Z,11.95
2017-05-02T03:01:59.322Z,11.94
2017-05-02T03:02:58.994Z,11.84
2017-05-02T03:03:59.291Z,11.87
2017-05-02T03:04:59.276Z,11.9
2017-05-02T03:05:59.561Z,11.89
2017-05-02T03:06:59.343Z,11.9
2017-05-02T03:07:59.262Z,11.87
2017-05-02T03:08:59.486Z,11.89
2017-05-02T03:09:59.170Z,11.81
2017-05-02T03:10:59.154Z,11.78
2017-05-02T03:11:58.824Z,11.84
2017-05-02T03:12:59.106Z,11.79
2017-05-02T03:13:59.393Z,11.94
2017-05-02T03:14:59.061Z,11.89
2017-05-02T03:15:58.742Z,11.89
2017-05-02T03:16:59.043Z,11.95
2017-05-02T03:17:59.013Z,11.97
2017-05-02T03:18:58.682Z,11.9
2017-05-02T03:19:58.982Z,11.91
2017-05-02T03:20:58.948Z,11.91
2017-05-02T03:21:59.235Z,11.9
2017-05-02T03:22:58.919Z,11.94
2017-05-02T03:23:59.203Z,11.95
2017-05-02T03:24:58.873Z,11.91
2017-05-02T03:25:59.154Z,11.95
2017-05-02T03:26:59.132Z,11.87
2017-05-02T03:27:58.813Z,11.9
2017-05-02T03:28:59.093Z,11.94
2017-05-02T03:29:59.085Z,11.95
2017-05-02T03:30:59.052Z,11.87
2017-05-02T03:31:59.048Z,11.87
2017-05-02T03:32:59.018Z,11.81
2017-05-02T03:33:59.004Z,11.84
2017-05-02T03:34:58.695Z,11.83
2017-05-02T03:35:58.651Z,11.84
2017-05-02T03:36:58.334Z,11.83
2017-05-02T03:37:58.934Z,11.84
2017-05-02T03:38:58.602Z,11.86
2017-05-02T03:39:58.592Z,11.69
2017-05-02T03:40:58.862Z,11.75
2017-05-02T03:41:58.249Z,11.73
2017-05-02T03:42:58.844Z,11.72
2017-05-02T03:43:58.815Z,11.79
2017-05-02T03:44:58.797Z,11.72
2017-05-02T03:45:58.762Z,11.65
2017-05-02T03:46:58.435Z,11.69
2017-05-02T03:47:58.724Z,11.75
2017-05-02T03:48:58.117Z,11.73
2017-05-02T03:49:58.519Z,11.87
2017-05-02T03:50:58.364Z,11.81
2017-05-02T03:51:58.663Z,11.71
2017-05-02T03:52:58.337Z,11.68
2017-05-02T03:53:58.327Z,11.69
2017-05-02T03:54:58.582Z,11.69
2017-05-02T03:55:58.271Z,11.71
2017-05-02T03:56:58.553Z,11.71
2017-05-02T03:57:58.322Z,11.64
2017-05-02T03:58:57.893Z,11.71
2017-05-02T03:59:58.496Z,11.57
2017-05-02T04:00:58.171Z,11.56
2017-05-02T04:01:58.208Z,11.6
2017-05-02T04:02:58.437Z,11.61
2017-05-02T04:03:58.098Z,11.73
2017-05-02T04:04:58.385Z,11.68
2017-05-02T04:05:58.065Z,11.66
2017-05-02T04:06:58.042Z,11.6
2017-05-02T04:07:58.113Z,11.71
2017-05-02T04:08:58.013Z,11.56
2017-05-02T04:09:58.084Z,11.61
2017-05-02T04:10:58.264Z,11.64
2017-05-02T04:11:58.243Z,11.54
2017-05-02T04:12:57.923Z,11.48
2017-05-02T04:13:58.226Z,11.47
2017-05-02T04:14:57.885Z,11.53
2017-05-02T04:15:58.201Z,11.48
2017-05-02T04:16:58.143Z,11.48
2017-05-02T04:17:58.143Z,11.51
2017-05-02T04:18:57.813Z,11.51
2017-05-02T04:19:58.093Z,11.4
2017-05-02T04:20:57.765Z,11.46
2017-05-02T04:21:57.751Z,11.46
2017-05-02T04:22:58.042Z,11.51
2017-05-02T04:23:57.775Z,11.47
2017-05-02T04:24:58.030Z,11.46
2017-05-02T04:25:57.439Z,11.5
2017-05-02T04:26:57.959Z,11.58
2017-05-02T04:27:57.973Z,11.6
2017-05-02T04:28:57.614Z,11.58
2017-05-02T04:29:57.410Z,11.58
2017-05-02T04:30:57.878Z,11.58
2017-05-02T04:31:57.853Z,11.75
2017-05-02T04:32:57.837Z,11.75
2017-05-02T04:33:57.818Z,11.73
2017-05-02T04:34:57.803Z,11.72
2017-05-02T04:35:57.784Z,11.73
2017-05-02T04:36:57.777Z,11.72
2017-05-02T04:37:57.130Z,11.69
2017-05-02T04:38:57.416Z,11.73
2017-05-02T04:39:57.697Z,11.73
2017-05-02T04:40:57.675Z,11.75
2017-05-02T04:41:57.674Z,11.75
2017-05-02T04:42:57.334Z,11.79
2017-05-02T04:43:57.364Z,11.89
2017-05-02T04:44:57.294Z,11.81
2017-05-02T04:45:57.575Z,11.81
2017-05-02T04:46:57.574Z,11.69
2017-05-02T04:47:57.237Z,11.81
2017-05-02T04:48:57.528Z,11.78
2017-05-02T04:49:57.195Z,11.84
2017-05-02T04:50:57.484Z,11.73
2017-05-02T04:51:57.143Z,11.68
2017-05-02T04:52:57.438Z,11.87
2017-05-02T04:53:57.426Z,11.86
2017-05-02T04:54:57.397Z,11.76
2017-05-02T04:55:57.377Z,11.81
2017-05-02T04:56:57.413Z,11.69
2017-05-02T04:57:57.334Z,11.79
2017-05-02T04:58:57.016Z,11.72
2017-05-02T04:59:57.300Z,11.76
2017-05-02T05:00:57.283Z,11.83
2017-05-02T05:01:56.642Z,11.81
2017-05-02T05:02:56.642Z,11.86
2017-05-02T05:03:57.223Z,11.84
2017-05-02T05:04:56.923Z,11.84
2017-05-02T05:05:56.886Z,11.84
2017-05-02T05:06:56.862Z,11.89
2017-05-02T05:07:57.143Z,11.89
2017-05-02T05:08:56.507Z,11.84
2017-05-02T05:09:56.812Z,11.84
2017-05-02T05:10:57.103Z,11.83
2017-05-02T05:11:57.105Z,11.71
2017-05-02T05:12:57.106Z,11.81
2017-05-02T05:13:56.738Z,11.84
2017-05-02T05:14:57.039Z,11.83
2017-05-02T05:15:56.691Z,11.84
2017-05-02T05:16:56.964Z,11.81
2017-05-02T05:17:56.679Z,11.84
2017-05-02T05:18:56.972Z,11.83
2017-05-02T05:19:56.650Z,11.87
2017-05-02T05:20:56.606Z,11.69
2017-05-02T05:21:56.865Z,11.68
2017-05-02T05:22:56.543Z,11.84
2017-05-02T05:23:56.825Z,11.86
2017-05-02T05:24:56.807Z,11.86
2017-05-02T05:25:56.781Z,11.71
2017-05-02T05:26:56.464Z,11.72
2017-05-02T05:27:56.438Z,11.54
2017-05-02T05:28:56.737Z,11.81
2017-05-02T05:29:56.404Z,11.79
2017-05-02T05:30:56.681Z,11.76
2017-05-02T05:31:56.362Z,11.83
2017-05-02T05:32:56.664Z,11.91
2017-05-02T05:33:56.336Z,11.9
2017-05-02T05:34:56.622Z,11.91
2017-05-02T05:35:56.285Z,11.84
2017-05-02T05:36:56.559Z,11.98
2017-05-02T05:37:56.242Z,11.99
2017-05-02T05:38:56.534Z,11.94
2017-05-02T05:39:56.512Z,11.95
2017-05-02T05:40:56.502Z,11.84
2017-05-02T05:41:56.513Z,11.86
2017-05-02T05:42:56.143Z,11.83
2017-05-02T05:43:56.159Z,11.95
2017-05-02T05:44:56.422Z,11.89
2017-05-02T05:45:55.804Z,11.87
2017-05-02T05:46:56.075Z,11.98
2017-05-02T05:47:56.401Z,12.02
2017-05-02T05:48:56.041Z,12.03
2017-05-02T05:49:56.312Z,12.06
2017-05-02T05:50:56.312Z,12.06
2017-05-02T05:51:55.718Z,12.05
2017-05-02T05:52:56.267Z,12.12
2017-05-02T05:53:56.242Z,12.02
2017-05-02T05:54:55.611Z,11.98
2017-05-02T05:55:56.257Z,11.91
2017-05-02T05:56:56.223Z,11.83
2017-05-02T05:57:55.601Z,11.95
2017-05-02T05:58:55.530Z,11.91
2017-05-02T05:59:56.162Z,11.94
2017-05-02T06:00:56.101Z,11.99
2017-05-02T06:01:55.504Z,11.91
2017-05-02T06:02:56.054Z,11.98
2017-05-02T06:03:56.043Z,12.06
2017-05-02T06:04:56.023Z,12.02
2017-05-02T06:05:56.011Z,11.99
2017-05-02T06:06:55.672Z,11.9
2017-05-02T06:07:55.667Z,11.97
2017-05-02T06:08:55.954Z,11.86
2017-05-02T06:09:55.621Z,11.89
2017-05-02T06:10:55.612Z,11.87
2017-05-02T06:11:55.959Z,11.97
2017-05-02T06:12:55.911Z,11.84
2017-05-02T06:13:55.931Z,11.91
2017-05-02T06:14:55.874Z,11.95
2017-05-02T06:15:55.811Z,11.87
2017-05-02T06:16:55.489Z,11.94
2017-05-02T06:17:55.469Z,11.99
2017-05-02T06:18:55.453Z,11.86
2017-05-02T06:19:55.426Z,11.83
2017-05-02T06:20:55.412Z,11.81
2017-05-02T06:21:55.735Z,11.86
2017-05-02T06:22:55.364Z,11.87
2017-05-02T06:23:55.362Z,11.91
2017-05-02T06:24:55.655Z,11.84
2017-05-02T06:25:55.614Z,11.9
2017-05-02T06:26:55.284Z,11.87
2017-05-02T06:27:55.581Z,11.89
2017-05-02T06:28:55.570Z,11.97
2017-05-02T06:29:55.234Z,11.97
2017-05-02T06:30:55.523Z,12.03
2017-05-02T06:31:55.204Z,11.91
2017-05-02T06:32:55.173Z,12.02
2017-05-02T06:33:55.472Z,12.06
2017-05-02T06:34:55.434Z,11.98
2017-05-02T06:35:55.423Z,12.02
2017-05-02T06:36:55.404Z,12.1
2017-05-02T06:37:55.394Z,12.13
2017-05-02T06:38:54.752Z,12.07
2017-05-02T06:39:55.354Z,12.12
2017-05-02T06:40:55.326Z,12.03
2017-05-02T06:41:55.322Z,12.12
2017-05-02T06:42:54.984Z,12.02
2017-05-02T06:43:54.962Z,12.03
2017-05-02T06:44:55.241Z,12.02
2017-05-02T06:45:54.912Z,12.03
2017-05-02T06:46:55.214Z,12.05
2017-05-02T06:47:55.198Z,12.05
2017-05-02T06:48:54.551Z,12.07
2017-05-02T06:49:55.145Z,12.1
2017-05-02T06:50:55.122Z,11.94
2017-05-02T06:51:54.813Z,12.02
2017-05-02T06:52:54.773Z,12.03
2017-05-02T06:53:55.062Z,12.12
2017-05-02T06:54:54.443Z,12.06
2017-05-02T06:55:55.030Z,12.12
2017-05-02T06:56:54.701Z,12.17
2017-05-02T06:57:54.992Z,12.15
2017-05-02T06:58:54.979Z,12.1
2017-05-02T06:59:54.649Z,12.12
2017-05-02T07:00:54.935Z,12.15
2017-05-02T07:01:54.912Z,12.03
2017-05-02T07:02:54.904Z,12.03
2017-05-02T07:03:54.874Z,12.09
2017-05-02T07:04:54.551Z,12.13
2017-05-02T07:05:54.832Z,12.17
2017-05-02T07:06:54.515Z,12.23
2017-05-02T07:07:54.513Z,12.3
2017-05-02T07:08:54.467Z,12.21
2017-05-02T07:09:54.752Z,12.13
2017-05-02T07:10:54.428Z,12.23
2017-05-02T07:11:54.420Z,12.21
2017-05-02T07:12:54.385Z,12.24
2017-05-02T07:13:54.383Z,12.34
2017-05-02T07:14:54.379Z,12.28
2017-05-02T07:15:54.704Z,12.34
2017-05-02T07:16:54.311Z,12.37
2017-05-02T07:17:54.604Z,12.45
2017-05-02T07:18:54.275Z,12.37
2017-05-02T07:19:54.573Z,12.4
2017-05-02T07:20:54.532Z,12.42
2017-05-02T07:21:54.533Z,12.49
2017-05-02T07:22:54.234Z,12.43
2017-05-02T07:23:54.177Z,12.55
2017-05-02T07:24:54.467Z,12.65
2017-05-02T07:25:54.554Z,12.73
2017-05-02T07:26:54.132Z,12.76
2017-05-02T07:27:54.485Z,12.73
2017-05-02T07:28:54.091Z,12.76
2017-05-02T07:29:54.382Z,12.73
2017-05-02T07:30:53.742Z,12.74
2017-05-02T07:31:54.340Z,12.81
2017-05-02T07:32:54.003Z,12.79
2017-05-02T07:33:54.103Z,12.81
2017-05-02T07:34:53.972Z,12.9
2017-05-02T07:35:54.010Z,13
2017-05-02T07:36:54.236Z,12.97
2017-05-02T07:37:53.930Z,12.98
2017-05-02T07:38:54.224Z,12.96
2017-05-02T07:39:53.923Z,13
2017-05-02T07:40:54.165Z,13
2017-05-02T07:41:53.541Z,12.85
2017-05-02T07:42:54.131Z,12.88
2017-05-02T07:43:54.133Z,13.01
2017-05-02T07:44:53.482Z,13.03
2017-05-02T07:45:53.763Z,13.08
2017-05-02T07:46:54.099Z,13.1
2017-05-02T07:47:54.033Z,13.07
2017-05-02T07:48:54.024Z,13.18
2017-05-02T07:49:53.694Z,13.1
2017-05-02T07:50:53.973Z,13.19
2017-05-02T07:51:53.673Z,13.18
2017-05-02T07:52:53.934Z,13.19
2017-05-02T07:53:53.327Z,13.31
2017-05-02T07:54:53.616Z,13.37
2017-05-02T07:55:53.276Z,13.38
2017-05-02T07:56:53.241Z,13.33
2017-05-02T07:57:53.870Z,13.38
2017-05-02T07:58:53.831Z,13.29
2017-05-02T07:59:53.214Z,13.23
2017-05-02T08:00:53.182Z,13.26
2017-05-02T08:01:53.461Z,13.4
2017-05-02T08:02:53.758Z,13.37
2017-05-02T08:03:53.432Z,13.37
2017-05-02T08:04:53.124Z,13.4
2017-05-02T08:05:53.696Z,13.35
2017-05-02T08:06:53.372Z,13.42
2017-05-02T08:07:53.360Z,13.4
2017-05-02T08:08:53.038Z,13.44
2017-05-02T08:09:53.011Z,13.55
2017-05-02T08:10:53.616Z,13.59
2017-05-02T08:11:53.594Z,13.55
2017-05-02T08:12:53.261Z,13.71
2017-05-02T08:13:52.945Z,13.63
2017-05-02T08:14:53.542Z,13.66
2017-05-02T08:15:53.211Z,13.7
2017-05-02T08:16:53.194Z,13.63
2017-05-02T08:17:53.185Z,13.7
2017-05-02T08:18:53.455Z,13.63
2017-05-02T08:19:53.455Z,13.74
2017-05-02T08:20:53.423Z,13.6
2017-05-02T08:21:53.094Z,13.6
2017-05-02T08:22:53.403Z,13.62
2017-05-02T08:23:53.054Z,13.57
2017-05-02T08:24:53.053Z,13.59
2017-05-02T08:25:53.034Z,13.56
2017-05-02T08:26:53.003Z,13.57
2017-05-02T08:27:52.995Z,13.6
2017-05-02T08:28:52.996Z,13.65
2017-05-02T08:29:53.261Z,13.66
2017-05-02T08:30:53.242Z,13.7
2017-05-02T08:31:52.945Z,13.63
2017-05-02T08:32:52.914Z,13.63
2017-05-02T08:33:53.227Z,13.65
2017-05-02T08:34:53.221Z,13.6
2017-05-02T08:35:53.165Z,13.75
2017-05-02T08:36:53.154Z,13.74
2017-05-02T08:37:52.508Z,13.82
2017-05-02T08:38:52.794Z,13.7
2017-05-02T08:39:53.093Z,13.67
2017-05-02T08:40:53.064Z,13.67
2017-05-02T08:41:53.044Z,13.77
2017-05-02T08:42:53.064Z,13.72
2017-05-02T08:43:53.009Z,13.63
2017-05-02T08:44:53.008Z,13.65
2017-05-02T08:45:52.977Z,13.67
2017-05-02T08:46:52.980Z,13.77
2017-05-02T08:47:52.942Z,13.8
2017-05-02T08:48:52.941Z,13.7
2017-05-02T08:49:52.905Z,13.89
2017-05-02T08:50:52.895Z,13.82
2017-05-02T08:51:52.867Z,13.88
2017-05-02T08:52:52.544Z,13.8
2017-05-02T08:53:52.866Z,13.85
2017-05-02T08:54:52.814Z,13.88
2017-05-02T08:55:52.306Z,13.82
2017-05-02T08:56:52.774Z,13.93
2017-05-02T08:57:52.782Z,13.92
2017-05-02T08:58:52.746Z,13.96
2017-05-02T08:59:52.723Z,13.85
2017-05-02T09:00:52.702Z,13.84
2017-05-02T09:01:52.701Z,13.82
2017-05-02T09:02:52.364Z,13.84
2017-05-02T09:03:52.683Z,13.84
2017-05-02T09:04:52.335Z,13.78
2017-05-02T09:05:52.621Z,13.88
2017-05-02T09:06:52.599Z,13.74
2017-05-02T09:07:52.586Z,13.66
2017-05-02T09:08:52.572Z,13.65
2017-05-02T09:09:52.563Z,13.72
2017-05-02T09:10:52.536Z,13.78
2017-05-02T09:11:52.502Z,13.78
2017-05-02T09:12:52.509Z,13.84
2017-05-02T09:13:52.181Z,13.8
2017-05-02T09:14:52.452Z,13.95
2017-05-02T09:15:52.443Z,13.92
2017-05-02T09:16:52.112Z,14
2017-05-02T09:17:52.093Z,13.92
2017-05-02T09:18:52.075Z,13.81
2017-05-02T09:19:52.372Z,13.85
2017-05-02T09:20:52.158Z,13.78
2017-05-02T09:21:52.011Z,13.71
2017-05-02T09:22:52.009Z,13.8
2017-05-02T09:23:51.982Z,13.82
2017-05-02T09:24:52.283Z,13.84
2017-05-02T09:25:52.046Z,13.82
2017-05-02T09:26:51.943Z,13.8
2017-05-02T09:27:52.231Z,13.88
2017-05-02T09:28:51.881Z,13.81
2017-05-02T09:29:51.873Z,13.8
2017-05-02T09:30:52.164Z,13.89
2017-05-02T09:31:52.151Z,13.81
2017-05-02T09:32:51.834Z,13.85
2017-05-02T09:33:52.123Z,13.81
2017-05-02T09:34:51.790Z,13.84
2017-05-02T09:35:52.084Z,13.9
2017-05-02T09:36:52.062Z,13.93
2017-05-02T09:37:51.742Z,13.89
2017-05-02T09:38:51.722Z,13.9
2017-05-02T09:39:51.389Z,13.92
2017-05-02T09:40:51.983Z,14.07
2017-05-02T09:41:51.984Z,14.1
2017-05-02T09:42:51.648Z,14.17
2017-05-02T09:43:51.622Z,14.05
2017-05-02T09:44:51.600Z,13.92
2017-05-02T09:45:51.902Z,14
2017-05-02T09:46:51.561Z,14.13
2017-05-02T09:47:51.863Z,14.14
2017-05-02T09:48:51.562Z,14.02
2017-05-02T09:49:51.863Z,14.11
2017-05-02T09:50:51.806Z,14.02
2017-05-02T09:51:51.502Z,13.95
2017-05-02T09:52:51.758Z,13.82
2017-05-02T09:53:51.774Z,13.78
2017-05-02T09:54:51.443Z,13.84
2017-05-02T09:55:51.403Z,13.78
2017-05-02T09:56:51.388Z,13.72
2017-05-02T09:57:51.386Z,13.82
2017-05-02T09:58:51.663Z,13.85
2017-05-02T09:59:51.342Z,13.77
2017-05-02T10:00:51.678Z,13.7
2017-05-02T10:01:51.330Z,13.53
2017-05-02T10:02:51.285Z,13.55
2017-05-02T10:03:51.559Z,13.55
2017-05-02T10:04:51.252Z,13.62
2017-05-02T10:05:51.553Z,13.67
2017-05-02T10:06:51.532Z,13.7
2017-05-02T10:07:51.215Z,13.77
2017-05-02T10:08:51.185Z,13.75
2017-05-02T10:09:51.163Z,13.81
2017-05-02T10:10:51.443Z,13.82
2017-05-02T10:11:51.112Z,13.85
2017-05-02T10:12:51.404Z,13.96
2017-05-02T10:13:51.082Z,13.99
2017-05-02T10:14:51.069Z,13.9
2017-05-02T10:15:51.358Z,13.77
2017-05-02T10:16:51.335Z,13.77
2017-05-02T10:17:51.006Z,13.74
2017-05-02T10:18:51.306Z,13.67
2017-05-02T10:19:50.691Z,13.74
2017-05-02T10:20:50.964Z,13.7
2017-05-02T10:21:50.947Z,13.81
2017-05-02T10:22:50.921Z,13.8
2017-05-02T10:23:50.900Z,13.9
2017-05-02T10:24:51.195Z,14.03
2017-05-02T10:25:50.555Z,14
2017-05-02T10:26:50.859Z,13.95
2017-05-02T10:27:51.143Z,13.99
2017-05-02T10:28:50.825Z,14.08
2017-05-02T10:29:50.803Z,14.13
2017-05-02T10:30:50.784Z,14.13
2017-05-02T10:31:51.093Z,14.29
2017-05-02T10:32:50.764Z,14.33
2017-05-02T10:33:51.032Z,14.28
2017-05-02T10:34:50.714Z,14.22
2017-05-02T10:35:50.699Z,14.22
2017-05-02T10:36:50.674Z,14.38
2017-05-02T10:37:50.984Z,14.57
2017-05-02T10:38:50.650Z,14.69
2017-05-02T10:39:50.639Z,14.84
2017-05-02T10:40:50.943Z,15
2017-05-02T10:41:50.895Z,15.09
2017-05-02T10:42:50.884Z,15.13
2017-05-02T10:43:50.564Z,15.13
2017-05-02T10:44:50.577Z,15.12
2017-05-02T10:45:50.832Z,15.1
2017-05-02T10:46:50.813Z,15.12
2017-05-02T10:47:50.795Z,15.17
2017-05-02T10:48:50.844Z,15.09
2017-05-02T10:49:50.766Z,15.2
2017-05-02T10:50:50.455Z,15.16
2017-05-02T10:51:50.445Z,15.32
2017-05-02T10:52:50.713Z,15.43
2017-05-02T10:53:50.703Z,15.37
2017-05-02T10:54:50.407Z,15.44
2017-05-02T10:55:50.361Z,15.5
2017-05-02T10:56:50.337Z,15.34
2017-05-02T10:57:50.637Z,15.21
2017-05-02T10:58:50.628Z,15.1
2017-05-02T10:59:50.313Z,14.84
2017-05-02T11:00:50.687Z,14.89
2017-05-02T11:01:50.602Z,14.94
2017-05-02T11:02:50.306Z,15.14
2017-05-02T11:03:50.545Z,15.17
2017-05-02T11:04:50.544Z,15.27
2017-05-02T11:05:50.517Z,15.34
2017-05-02T11:06:50.275Z,15.22
2017-05-02T11:07:50.479Z,15.37
2017-05-02T11:08:50.472Z,15.39
2017-05-02T11:09:50.196Z,15.53
2017-05-02T11:10:50.498Z,15.58
2017-05-02T11:11:50.127Z,15.62
2017-05-02T11:12:50.220Z,15.68
2017-05-02T11:13:50.383Z,15.57
2017-05-02T11:14:49.744Z,15.53
2017-05-02T11:15:50.369Z,15.53
2017-05-02T11:16:50.426Z,15.43
2017-05-02T11:17:50.332Z,15.29
2017-05-02T11:18:50.352Z,15.31
2017-05-02T11:19:49.975Z,15.44
2017-05-02T11:20:49.976Z,15.44
2017-05-02T11:21:50.256Z,15.37
2017-05-02T11:22:50.325Z,15.39
2017-05-02T11:23:50.225Z,15.54
2017-05-02T11:24:50.187Z,15.52
2017-05-02T11:25:50.181Z,15.49
2017-05-02T11:26:50.240Z,15.79
2017-05-02T11:27:49.845Z,15.69
2017-05-02T11:28:50.134Z,15.58
2017-05-02T11:29:50.120Z,15.58
2017-05-02T11:30:49.793Z,15.72
2017-05-02T11:31:49.773Z,15.75
2017-05-02T11:32:49.835Z,15.79
2017-05-02T11:33:50.065Z,15.72
2017-05-02T11:34:50.116Z,15.72
2017-05-02T11:35:49.712Z,15.82
2017-05-02T11:36:50.004Z,15.82
2017-05-02T11:37:50.016Z,15.86
2017-05-02T11:38:49.959Z,15.92
2017-05-02T11:39:49.633Z,15.97
2017-05-02T11:40:49.634Z,16.01
2017-05-02T11:41:49.616Z,16.05
2017-05-02T11:42:49.889Z,16
2017-05-02T11:43:49.571Z,15.95
2017-05-02T11:44:49.873Z,15.86
2017-05-02T11:45:49.862Z,15.72
2017-05-02T11:46:49.534Z,15.77
2017-05-02T11:47:49.213Z,15.83
2017-05-02T11:48:49.512Z,15.75
2017-05-02T11:49:49.774Z,15.85
2017-05-02T11:50:49.774Z,15.94
2017-05-02T11:51:49.462Z,15.94
2017-05-02T11:52:49.735Z,15.8
2017-05-02T11:53:49.724Z,15.9
2017-05-02T11:54:49.715Z,16.07
2017-05-02T11:55:49.690Z,16.13
2017-05-02T11:56:49.688Z,16.28
2017-05-02T11:57:49.665Z,16.28
2017-05-02T11:58:49.348Z,16.43
2017-05-02T11:59:49.623Z,16.56
2017-05-02T12:00:49.296Z,16.68
2017-05-02T12:01:49.604Z,16.71
2017-05-02T12:02:49.583Z,16.74
2017-05-02T12:03:49.583Z,16.87
2017-05-02T12:04:49.554Z,17.06
2017-05-02T12:05:49.529Z,17.18
2017-05-02T12:06:49.534Z,17.44
2017-05-02T12:07:49.535Z,17.46
2017-05-02T12:08:49.505Z,17.51
2017-05-02T12:09:49.474Z,17.33
2017-05-02T12:10:49.163Z,17.22
2017-05-02T12:11:49.163Z,17.16
2017-05-02T12:12:49.437Z,16.76
2017-05-02T12:13:49.117Z,16.68
2017-05-02T12:14:49.392Z,16.48
2017-05-02T12:15:49.394Z,16.12
2017-05-02T12:16:49.370Z,16.02
2017-05-02T12:17:49.063Z,15.86
2017-05-02T12:18:49.384Z,15.69
2017-05-02T12:19:49.014Z,15.69
2017-05-02T12:20:49.315Z,15.68
2017-05-02T12:21:49.310Z,15.61
2017-05-02T12:22:49.284Z,15.67
2017-05-02T12:23:48.958Z,15.54
2017-05-02T12:24:49.257Z,15.5
2017-05-02T12:25:48.913Z,15.53
2017-05-02T12:26:49.195Z,15.54
2017-05-02T12:27:48.583Z,15.5
2017-05-02T12:28:49.168Z,15.53
2017-05-02T12:29:49.153Z,15.52
2017-05-02T12:30:48.574Z,15.52
2017-05-02T12:31:49.121Z,15.49
2017-05-02T12:32:48.528Z,15.43
2017-05-02T12:33:48.478Z,15.44
2017-05-02T12:34:49.085Z,15.32
2017-05-02T12:35:48.756Z,15.28
2017-05-02T12:36:49.042Z,15.22
2017-05-02T12:37:49.025Z,15.14
2017-05-02T12:38:49.023Z,15.1
2017-05-02T12:39:48.994Z,15.03
2017-05-02T12:40:48.984Z,14.8
2017-05-02T12:41:48.959Z,14.89
2017-05-02T12:42:48.945Z,14.98
2017-05-02T12:43:48.613Z,14.98
2017-05-02T12:44:48.914Z,15
2017-05-02T12:45:48.580Z,14.72
2017-05-02T12:46:48.872Z,14.75
2017-05-02T12:47:48.944Z,14.7
2017-05-02T12:48:48.650Z,14.62
2017-05-02T12:49:48.504Z,14.58
2017-05-02T12:50:48.815Z,14.58
2017-05-02T12:51:48.466Z,14.62
2017-05-02T12:52:48.153Z,14.57
2017-05-02T12:53:48.439Z,14.6
2017-05-02T12:56:48.453Z,14.42
2017-05-02T12:56:58.062Z,14.48